createdAt,value
2018-10-18T00:00:02.532Z,0.00
2018-10-18T00:01:02.495Z,0.00
2018-10-18T00:02:02.559Z,0.00
2018-10-18T00:03:02.483Z,0.00
2018-10-18T00:04:02.479Z,0.00
2018-10-18T00:05:02.471Z,0.00
2018-10-18T00:06:02.509Z,0.00
2018-10-18T00:07:02.465Z,0.00
2018-10-18T00:08:02.512Z,0.00
2018-10-18T00:09:02.450Z,0.00
2018-10-18T00:10:02.447Z,0.00
2018-10-18T00:11:02.440Z,0.00
2018-10-18T00:12:02.498Z,0.00
2018-10-18T00:13:02.436Z,0.00
2018-10-18T00:14:02.523Z,0.00
2018-10-18T00:15:02.422Z,0.00
2018-10-18T00:16:02.415Z,0.00
2018-10-18T00:17:02.417Z,0.00
2018-10-18T00:18:02.438Z,0.00
2018-10-18T00:19:02.408Z,0.00
2018-10-18T00:20:02.451Z,0.00
2018-10-18T00:21:02.393Z,0.00
2018-10-18T00:22:02.388Z,0.00
2018-10-18T00:23:02.388Z,0.00
2018-10-18T00:24:02.453Z,0.00
2018-10-18T00:25:02.372Z,0.00
2018-10-18T00:26:02.444Z,0.00
2018-10-18T00:27:02.363Z,0.00
2018-10-18T00:28:02.357Z,0.00
2018-10-18T00:29:02.357Z,0.00
2018-10-18T00:30:02.412Z,0.00
2018-10-18T00:31:02.348Z,0.00
2018-10-18T00:32:02.392Z,0.00
2018-10-18T00:33:02.333Z,0.00
2018-10-18T00:34:02.328Z,0.00
2018-10-18T00:35:02.325Z,0.00
2018-10-18T00:36:02.376Z,0.00
2018-10-18T00:37:02.320Z,0.00
2018-10-18T00:38:02.414Z,0.00
2018-10-18T00:39:02.304Z,0.00
2018-10-18T00:40:02.303Z,0.00
2018-10-18T00:41:02.299Z,0.00
2018-10-18T00:42:02.369Z,0.00
2018-10-18T00:43:02.289Z,0.00
2018-10-18T00:44:02.346Z,0.00
2018-10-18T00:45:02.274Z,0.00
2018-10-18T00:46:02.270Z,0.00
2018-10-18T00:47:02.264Z,0.00
2018-10-18T00:48:02.300Z,0.00
2018-10-18T00:49:02.258Z,0.00
2018-10-18T00:50:02.310Z,0.00
2018-10-18T00:51:02.251Z,0.00
2018-10-18T00:52:02.246Z,0.00
2018-10-18T00:53:02.236Z,0.00
2018-10-18T00:54:02.238Z,0.00
2018-10-18T00:55:02.230Z,0.00
2018-10-18T00:56:02.312Z,0.00
2018-10-18T00:57:02.216Z,0.00
2018-10-18T00:58:02.212Z,0.00
2018-10-18T00:59:02.205Z,0.00
2018-10-18T01:00:02.267Z,0.00
2018-10-18T01:01:02.200Z,0.00
2018-10-18T01:02:02.231Z,0.00
2018-10-18T01:03:02.190Z,0.00
2018-10-18T01:04:02.184Z,0.00
2018-10-18T01:05:02.175Z,0.00
2018-10-18T01:06:02.203Z,0.00
2018-10-18T01:07:02.166Z,0.00
2018-10-18T01:08:02.171Z,0.00
2018-10-18T01:09:02.160Z,0.00
2018-10-18T01:10:02.156Z,0.00
2018-10-18T01:11:02.145Z,0.00
2018-10-18T01:12:02.221Z,0.00
2018-10-18T01:13:02.140Z,0.00
2018-10-18T01:14:02.192Z,0.00
2018-10-18T01:15:02.130Z,0.00
2018-10-18T01:16:02.125Z,0.00
2018-10-18T01:17:02.114Z,0.00
2018-10-18T01:18:02.175Z,0.00
2018-10-18T01:19:02.107Z,0.00
2018-10-18T01:20:02.155Z,0.00
2018-10-18T01:21:02.100Z,0.00
2018-10-18T01:22:02.096Z,0.00
2018-10-18T01:23:02.093Z,0.00
2018-10-18T01:24:02.145Z,0.00
2018-10-18T01:25:02.075Z,0.00
2018-10-18T01:26:02.156Z,0.00
2018-10-18T01:27:02.069Z,0.00
2018-10-18T01:28:02.065Z,0.00
2018-10-18T01:29:02.055Z,0.00
2018-10-18T01:30:02.119Z,0.00
2018-10-18T01:31:02.045Z,0.00
2018-10-18T01:32:02.092Z,0.00
2018-10-18T01:33:02.039Z,0.00
2018-10-18T01:34:02.033Z,0.00
2018-10-18T01:35:02.030Z,0.00
2018-10-18T01:36:02.087Z,0.00
2018-10-18T01:37:02.014Z,0.00
2018-10-18T01:38:02.078Z,0.00
2018-10-18T01:39:02.005Z,0.00
2018-10-18T01:40:02.044Z,0.00
2018-10-18T01:41:02.002Z,0.00
2018-10-18T01:42:02.053Z,0.00
2018-10-18T01:43:01.983Z,0.00
2018-10-18T01:44:02.038Z,0.00
2018-10-18T01:45:01.976Z,0.00
2018-10-18T01:46:01.972Z,0.00
2018-10-18T01:47:01.969Z,0.00
2018-10-18T01:48:01.970Z,0.00
2018-10-18T01:49:01.953Z,0.00
2018-10-18T01:50:01.998Z,0.00
2018-10-18T01:51:01.942Z,0.00
2018-10-18T01:52:01.936Z,0.00
2018-10-18T01:53:01.937Z,0.00
2018-10-18T01:54:02.033Z,0.00
2018-10-18T01:55:01.944Z,0.00
2018-10-18T01:56:01.999Z,0.00
2018-10-18T01:57:01.951Z,0.00
2018-10-18T01:58:01.905Z,0.00
2018-10-18T01:59:01.905Z,0.00
2018-10-18T02:00:01.987Z,0.00
2018-10-18T02:01:01.894Z,0.00
2018-10-18T02:02:01.892Z,0.00
2018-10-18T02:03:01.880Z,0.00
2018-10-18T02:04:01.875Z,0.00
2018-10-18T02:05:01.876Z,0.00
2018-10-18T02:06:01.897Z,0.00
2018-10-18T02:07:01.864Z,0.00
2018-10-18T02:08:01.937Z,0.00
2018-10-18T02:09:01.849Z,0.00
2018-10-18T02:10:01.844Z,0.00
2018-10-18T02:11:01.839Z,0.00
2018-10-18T02:12:01.911Z,0.00
2018-10-18T02:13:01.834Z,0.00
2018-10-18T02:14:01.827Z,0.00
2018-10-18T02:15:01.820Z,0.00
2018-10-18T02:16:01.815Z,0.00
2018-10-18T02:17:01.815Z,0.00
2018-10-18T02:18:01.859Z,0.00
2018-10-18T02:19:01.806Z,0.00
2018-10-18T02:20:01.803Z,0.00
2018-10-18T02:21:01.792Z,0.00
2018-10-18T02:22:01.784Z,0.00
2018-10-18T02:23:01.778Z,0.00
2018-10-18T02:24:01.827Z,0.00
2018-10-18T02:25:01.833Z,0.00
2018-10-18T02:26:01.766Z,0.00
2018-10-18T02:27:01.762Z,0.00
2018-10-18T02:28:01.759Z,0.00
2018-10-18T02:29:01.748Z,0.00
2018-10-18T02:30:01.855Z,0.00
2018-10-18T02:31:01.742Z,0.00
2018-10-18T02:32:01.739Z,0.00
2018-10-18T02:33:01.726Z,0.00
2018-10-18T02:34:01.721Z,0.00
2018-10-18T02:35:01.715Z,0.00
2018-10-18T02:36:01.800Z,0.00
2018-10-18T02:37:01.709Z,0.00
2018-10-18T02:38:01.704Z,0.00
2018-10-18T02:39:01.700Z,0.00
2018-10-18T02:40:01.697Z,0.00
2018-10-18T02:41:01.684Z,0.00
2018-10-18T02:42:01.712Z,0.00
2018-10-18T02:43:01.682Z,0.00
2018-10-18T02:44:01.669Z,0.00
2018-10-18T02:45:01.670Z,0.00
2018-10-18T02:46:01.665Z,0.00
2018-10-18T02:47:01.654Z,0.00
2018-10-18T02:48:01.679Z,0.00
2018-10-18T02:49:01.649Z,0.00
2018-10-18T02:50:01.644Z,0.00
2018-10-18T02:51:01.640Z,0.00
2018-10-18T02:52:01.633Z,0.00
2018-10-18T02:53:01.624Z,0.00
2018-10-18T02:54:01.700Z,0.00
2018-10-18T02:55:01.615Z,0.00
2018-10-18T02:56:01.609Z,0.00
2018-10-18T02:57:01.610Z,0.00
2018-10-18T02:58:01.604Z,0.00
2018-10-18T02:59:01.599Z,0.00
2018-10-18T03:00:01.697Z,0.00
2018-10-18T03:01:01.584Z,0.00
2018-10-18T03:02:01.578Z,0.00
2018-10-18T03:03:01.582Z,0.00
2018-10-18T03:04:01.573Z,0.00
2018-10-18T03:05:01.585Z,0.00
2018-10-18T03:06:01.635Z,0.00
2018-10-18T03:07:01.553Z,0.00
2018-10-18T03:08:01.550Z,0.00
2018-10-18T03:09:01.548Z,0.00
2018-10-18T03:10:01.541Z,0.00
2018-10-18T03:11:01.538Z,0.00
2018-10-18T03:12:01.583Z,0.00
2018-10-18T03:13:01.522Z,0.00
2018-10-18T03:14:01.516Z,0.00
2018-10-18T03:15:01.520Z,0.00
2018-10-18T03:16:01.731Z,0.00
2018-10-18T03:17:01.508Z,0.00
2018-10-18T03:18:01.559Z,0.00
2018-10-18T03:19:01.491Z,0.00
2018-10-18T03:20:01.485Z,0.00
2018-10-18T03:21:01.485Z,0.00
2018-10-18T03:22:01.491Z,0.00
2018-10-18T03:23:01.474Z,0.00
2018-10-18T03:24:01.480Z,0.00
2018-10-18T03:25:01.460Z,0.00
2018-10-18T03:26:01.454Z,0.00
2018-10-18T03:27:01.450Z,0.00
2018-10-18T03:28:01.445Z,0.00
2018-10-18T03:29:01.447Z,0.00
2018-10-18T03:30:01.504Z,0.00
2018-10-18T03:31:01.441Z,0.00
2018-10-18T03:32:01.431Z,0.00
2018-10-18T03:33:01.418Z,0.00
2018-10-18T03:34:01.414Z,0.00
2018-10-18T03:35:01.412Z,0.00
2018-10-18T03:36:01.454Z,0.00
2018-10-18T03:37:01.397Z,0.00
2018-10-18T03:38:01.392Z,0.00
2018-10-18T03:39:01.394Z,0.00
2018-10-18T03:40:01.397Z,0.00
2018-10-18T03:41:01.383Z,0.00
2018-10-18T03:42:01.414Z,0.00
2018-10-18T03:43:01.377Z,0.00
2018-10-18T03:44:01.368Z,0.00
2018-10-18T03:45:01.357Z,0.00
2018-10-18T03:46:01.351Z,0.00
2018-10-18T03:47:01.346Z,0.00
2018-10-18T03:48:01.367Z,0.00
2018-10-18T03:49:01.340Z,0.00
2018-10-18T03:50:01.336Z,0.00
2018-10-18T03:51:01.326Z,0.00
2018-10-18T03:52:01.320Z,0.00
2018-10-18T03:53:01.320Z,0.00
2018-10-18T03:54:01.368Z,0.00
2018-10-18T03:55:01.311Z,0.00
2018-10-18T03:56:01.304Z,0.00
2018-10-18T03:57:01.297Z,0.00
2018-10-18T03:58:01.294Z,0.00
2018-10-18T03:59:01.287Z,0.00
2018-10-18T04:00:01.323Z,0.00
2018-10-18T04:01:01.281Z,0.00
2018-10-18T04:02:01.281Z,0.00
2018-10-18T04:03:01.275Z,0.00
2018-10-18T04:04:01.265Z,0.00
2018-10-18T04:05:01.255Z,0.00
2018-10-18T04:06:01.346Z,0.00
2018-10-18T04:07:01.252Z,0.00
2018-10-18T04:08:01.245Z,0.00
2018-10-18T04:09:01.235Z,0.00
2018-10-18T04:10:01.231Z,0.00
2018-10-18T04:11:01.228Z,0.00
2018-10-18T04:12:01.302Z,0.00
2018-10-18T04:13:01.294Z,0.00
2018-10-18T04:14:01.217Z,0.00
2018-10-18T04:15:01.213Z,0.00
2018-10-18T04:16:01.207Z,0.00
2018-10-18T04:17:01.200Z,0.00
2018-10-18T04:18:01.329Z,0.00
2018-10-18T04:19:01.189Z,0.00
2018-10-18T04:20:01.184Z,0.00
2018-10-18T04:21:01.185Z,0.00
2018-10-18T04:22:01.181Z,0.00
2018-10-18T04:23:01.169Z,0.00
2018-10-18T04:24:01.174Z,0.00
2018-10-18T04:25:01.165Z,0.00
2018-10-18T04:26:01.160Z,0.00
2018-10-18T04:27:01.157Z,0.00
2018-10-18T04:28:01.150Z,0.00
2018-10-18T04:29:01.142Z,0.00
2018-10-18T04:30:01.200Z,0.00
2018-10-18T04:31:01.137Z,0.00
2018-10-18T04:32:01.128Z,0.00
2018-10-18T04:33:01.127Z,0.00
2018-10-18T04:34:01.125Z,0.00
2018-10-18T04:35:01.119Z,0.00
2018-10-18T04:36:01.193Z,0.00
2018-10-18T04:37:01.104Z,0.00
2018-10-18T04:38:01.100Z,0.00
2018-10-18T04:39:01.137Z,0.00
2018-10-18T04:40:01.094Z,0.00
2018-10-18T04:41:01.085Z,0.00
2018-10-18T04:42:01.084Z,0.00
2018-10-18T04:43:01.077Z,0.00
2018-10-18T04:44:01.072Z,0.00
2018-10-18T04:45:01.073Z,0.00
2018-10-18T04:46:01.068Z,0.00
2018-10-18T04:47:01.093Z,0.00
2018-10-18T04:48:01.210Z,0.00
2018-10-18T04:49:01.155Z,0.00
2018-10-18T04:50:01.045Z,0.00
2018-10-18T04:51:01.040Z,0.00
2018-10-18T04:52:01.034Z,0.00
2018-10-18T04:53:01.036Z,0.00
2018-10-18T04:54:01.031Z,0.00
2018-10-18T04:55:01.054Z,0.00
2018-10-18T04:56:01.016Z,0.00
2018-10-18T04:57:01.159Z,0.00
2018-10-18T04:58:01.012Z,0.00
2018-10-18T04:59:01.009Z,0.00
2018-10-18T05:00:01.003Z,0.00
2018-10-18T05:01:01.005Z,0.00
2018-10-18T05:02:00.992Z,0.00
2018-10-18T05:03:00.990Z,0.00
2018-10-18T05:04:00.981Z,0.00
2018-10-18T05:05:00.983Z,0.00
2018-10-18T05:06:00.980Z,0.00
2018-10-18T05:07:01.024Z,0.00
2018-10-18T05:08:00.966Z,0.00
2018-10-18T05:09:00.959Z,0.00
2018-10-18T05:10:00.955Z,0.00
2018-10-18T05:11:00.957Z,0.00
2018-10-18T05:12:00.949Z,0.00
2018-10-18T05:13:00.966Z,0.00
2018-10-18T05:14:00.936Z,0.00
2018-10-18T05:15:00.932Z,0.00
2018-10-18T05:16:00.927Z,0.00
2018-10-18T05:17:00.928Z,0.00
2018-10-18T05:18:00.923Z,0.00
2018-10-18T05:19:00.945Z,0.00
2018-10-18T05:20:00.913Z,0.00
2018-10-18T05:21:00.905Z,0.00
2018-10-18T05:22:00.899Z,0.00
2018-10-18T05:23:00.895Z,0.00
2018-10-18T05:24:00.889Z,0.00
2018-10-18T05:25:00.938Z,0.00
2018-10-18T05:26:00.885Z,0.00
2018-10-18T05:27:00.876Z,4.00
2018-10-18T05:28:00.872Z,4.00
2018-10-18T05:29:00.871Z,0.00
2018-10-18T05:30:00.867Z,4.00
2018-10-18T05:31:00.869Z,4.00
2018-10-18T05:32:00.857Z,4.00
2018-10-18T05:33:00.847Z,4.00
2018-10-18T05:34:00.845Z,4.00
2018-10-18T05:35:00.839Z,4.00
2018-10-18T05:36:00.833Z,8.00
2018-10-18T05:37:00.876Z,8.00
2018-10-18T05:38:00.832Z,8.00
2018-10-18T05:39:00.825Z,8.00
2018-10-18T05:40:00.822Z,8.00
2018-10-18T05:41:00.810Z,12.00
2018-10-18T05:42:00.806Z,12.00
2018-10-18T05:43:00.842Z,16.00
2018-10-18T05:44:00.800Z,16.00
2018-10-18T05:45:00.790Z,20.00
2018-10-18T05:46:00.790Z,20.00
2018-10-18T05:47:00.810Z,24.00
2018-10-18T05:48:00.776Z,28.00
2018-10-18T05:49:00.810Z,36.00
2018-10-18T05:50:00.772Z,44.00
2018-10-18T05:51:00.768Z,48.00
2018-10-18T05:52:00.762Z,56.00
2018-10-18T05:53:00.804Z,60.00
2018-10-18T05:54:00.893Z,72.00
2018-10-18T05:55:00.751Z,84.00
2018-10-18T05:56:00.741Z,96.00
2018-10-18T05:57:00.743Z,104.00
2018-10-18T05:58:00.735Z,108.00
2018-10-18T05:59:00.726Z,116.00
2018-10-18T06:00:00.723Z,128.00
2018-10-18T06:01:00.752Z,140.00
2018-10-18T06:02:00.716Z,164.00
2018-10-18T06:03:00.714Z,184.00
2018-10-18T06:04:00.705Z,208.00
2018-10-18T06:05:00.697Z,228.00
2018-10-18T06:06:00.692Z,248.00
2018-10-18T06:07:00.737Z,264.00
2018-10-18T06:08:00.683Z,280.00
2018-10-18T06:09:00.683Z,292.00
2018-10-18T06:10:00.828Z,292.00
2018-10-18T06:11:00.676Z,300.00
2018-10-18T06:12:00.680Z,296.00
2018-10-18T06:13:00.705Z,296.00
2018-10-18T06:14:00.656Z,304.00
2018-10-18T06:15:00.657Z,308.00
2018-10-18T06:16:00.652Z,316.00
2018-10-18T06:17:00.641Z,340.00
2018-10-18T06:18:00.641Z,360.00
2018-10-18T06:19:00.684Z,392.00
2018-10-18T06:20:00.633Z,424.00
2018-10-18T06:21:00.628Z,464.00
2018-10-18T06:22:00.624Z,500.00
2018-10-18T06:23:00.631Z,532.00
2018-10-18T06:24:00.614Z,560.00
2018-10-18T06:25:00.614Z,596.00
2018-10-18T06:26:00.602Z,660.00
2018-10-18T06:27:00.598Z,736.00
2018-10-18T06:28:00.592Z,808.00
2018-10-18T06:29:00.624Z,836.00
2018-10-18T06:30:00.590Z,824.00
2018-10-18T06:31:00.600Z,792.00
2018-10-18T06:32:00.578Z,788.00
2018-10-18T06:33:00.652Z,836.00
2018-10-18T06:34:00.572Z,948.00
2018-10-18T06:35:00.570Z,1144.00
2018-10-18T06:36:00.564Z,1360.00
2018-10-18T06:37:00.597Z,1432.00
2018-10-18T06:38:00.549Z,1332.00
2018-10-18T06:39:00.566Z,1200.00
2018-10-18T06:40:00.540Z,1148.00
2018-10-18T06:41:00.574Z,1160.00
2018-10-18T06:42:00.538Z,1240.00
2018-10-18T06:43:00.553Z,1336.00
2018-10-18T06:44:00.527Z,1396.00
2018-10-18T06:45:00.519Z,1424.00
2018-10-18T06:46:00.515Z,1452.00
2018-10-18T06:47:00.561Z,1464.00
2018-10-18T06:48:00.554Z,1472.00
2018-10-18T06:49:00.610Z,1496.00
2018-10-18T06:50:00.508Z,1560.00
2018-10-18T06:51:00.494Z,1652.00
2018-10-18T06:52:00.489Z,1724.00
2018-10-18T06:53:00.491Z,1728.00
2018-10-18T06:54:00.547Z,1752.00
2018-10-18T06:55:00.536Z,1824.00
2018-10-18T06:56:00.479Z,1812.00
2018-10-18T06:57:00.470Z,1716.00
2018-10-18T06:58:00.467Z,1600.00
2018-10-18T06:59:00.463Z,1516.00
2018-10-18T07:00:00.566Z,1484.00
2018-10-18T07:01:00.460Z,1468.00
2018-10-18T07:02:00.457Z,1508.00
2018-10-18T07:03:00.447Z,1556.00
2018-10-18T07:04:00.443Z,1588.00
2018-10-18T07:05:00.444Z,1636.00
2018-10-18T07:06:00.444Z,1644.00
2018-10-18T07:07:00.439Z,1600.00
2018-10-18T07:08:00.433Z,1528.00
2018-10-18T07:09:00.447Z,1548.00
2018-10-18T07:10:00.420Z,1704.00
2018-10-18T07:11:00.557Z,1928.00
2018-10-18T07:12:00.435Z,2004.00
2018-10-18T07:13:00.415Z,1572.00
2018-10-18T07:14:00.412Z,1312.00
2018-10-18T07:15:00.407Z,1128.00
2018-10-18T07:16:00.403Z,1036.00
2018-10-18T07:17:00.396Z,1036.00
2018-10-18T07:18:00.458Z,1036.00
2018-10-18T07:19:00.392Z,1076.00
2018-10-18T07:20:00.388Z,1136.00
2018-10-18T07:21:00.380Z,1100.00
2018-10-18T07:22:00.377Z,988.00
2018-10-18T07:23:00.373Z,1048.00
2018-10-18T07:24:00.429Z,1164.00
2018-10-18T07:25:00.377Z,1252.00
2018-10-18T07:26:00.366Z,1364.00
2018-10-18T07:27:00.363Z,1644.00
2018-10-18T07:28:00.360Z,1880.00
2018-10-18T07:29:00.352Z,1832.00
2018-10-18T07:30:00.367Z,1860.00
2018-10-18T07:31:00.343Z,1976.00
2018-10-18T07:32:00.340Z,2024.00
2018-10-18T07:33:00.339Z,1768.00
2018-10-18T07:34:00.337Z,1732.00
2018-10-18T07:35:00.442Z,1956.00
2018-10-18T07:36:00.398Z,1824.00
2018-10-18T07:37:00.324Z,1824.00
2018-10-18T07:38:00.320Z,1784.00
2018-10-18T07:39:00.318Z,1692.00
2018-10-18T07:40:00.313Z,1540.00
2018-10-18T07:41:00.371Z,1428.00
2018-10-18T07:42:00.338Z,1628.00
2018-10-18T07:43:00.299Z,2068.00
2018-10-18T07:44:00.293Z,2540.00
2018-10-18T07:45:00.294Z,2524.00
2018-10-18T07:46:00.290Z,2188.00
2018-10-18T07:47:00.376Z,1804.00
2018-10-18T07:48:00.305Z,1600.00
2018-10-18T07:49:00.274Z,1448.00
2018-10-18T07:50:00.271Z,1368.00
2018-10-18T07:51:00.274Z,1340.00
2018-10-18T07:52:00.272Z,1356.00
2018-10-18T07:53:00.290Z,1424.00
2018-10-18T07:54:00.262Z,1540.00
2018-10-18T07:55:00.254Z,1612.00
2018-10-18T07:56:00.249Z,1752.00
2018-10-18T07:57:00.250Z,1732.00
2018-10-18T07:58:00.246Z,1684.00
2018-10-18T07:59:00.246Z,1524.00
2018-10-18T08:00:00.324Z,1512.00
2018-10-18T08:01:00.230Z,1560.00
2018-10-18T08:02:00.227Z,1456.00
2018-10-18T08:03:00.224Z,1476.00
2018-10-18T08:04:00.219Z,1596.00
2018-10-18T08:05:00.220Z,1808.00
2018-10-18T08:06:00.216Z,2060.00
2018-10-18T08:07:00.263Z,2372.00
2018-10-18T08:08:00.205Z,2640.00
2018-10-18T08:09:00.212Z,2740.00
2018-10-18T08:10:00.297Z,2492.00
2018-10-18T08:11:00.271Z,2396.00
2018-10-18T08:12:00.195Z,2744.00
2018-10-18T08:13:00.226Z,2920.00
2018-10-18T08:14:00.182Z,2804.00
2018-10-18T08:15:00.179Z,2608.00
2018-10-18T08:16:00.175Z,2664.00
2018-10-18T08:17:00.304Z,2576.00
2018-10-18T08:18:00.172Z,2480.00
2018-10-18T08:19:00.224Z,2448.00
2018-10-18T08:20:00.165Z,2404.00
2018-10-18T08:21:00.157Z,2188.00
2018-10-18T08:22:00.152Z,2184.00
2018-10-18T08:23:00.154Z,2304.00
2018-10-18T08:24:00.150Z,2100.00
2018-10-18T08:25:00.204Z,1812.00
2018-10-18T08:26:00.138Z,1664.00
2018-10-18T08:27:00.137Z,1576.00
2018-10-18T08:28:00.131Z,1404.00
2018-10-18T08:29:00.131Z,1296.00
2018-10-18T08:30:00.128Z,1296.00
2018-10-18T08:31:00.154Z,1300.00
2018-10-18T08:32:00.120Z,1236.00
2018-10-18T08:33:00.114Z,1236.00
2018-10-18T08:34:00.109Z,1156.00
2018-10-18T08:35:00.106Z,1244.00
2018-10-18T08:36:00.100Z,1244.00
2018-10-18T08:37:00.118Z,1272.00
2018-10-18T08:38:00.288Z,1348.00
2018-10-18T08:39:00.094Z,1576.00
2018-10-18T08:40:00.085Z,1856.00
2018-10-18T08:41:00.093Z,2088.00
2018-10-18T08:42:00.084Z,2344.00
2018-10-18T08:43:00.131Z,2392.00
2018-10-18T08:44:00.191Z,2244.00
2018-10-18T08:45:00.072Z,2184.00
2018-10-18T08:46:00.064Z,2024.00
2018-10-18T08:47:00.060Z,2184.00
2018-10-18T08:48:00.055Z,2392.00
2018-10-18T08:49:00.108Z,2448.00
2018-10-18T08:50:00.105Z,2572.00
2018-10-18T08:51:00.047Z,3076.00
2018-10-18T08:52:00.044Z,3516.00
2018-10-18T08:53:00.035Z,3236.00
2018-10-18T08:54:00.034Z,2832.00
2018-10-18T08:55:00.066Z,2628.00
2018-10-18T08:56:00.029Z,2744.00
2018-10-18T08:57:00.019Z,2964.00
2018-10-18T08:58:00.016Z,3360.00
2018-10-18T08:59:00.070Z,3728.00
2018-10-18T09:00:00.008Z,3976.00
2018-10-18T09:01:00.024Z,3996.00
2018-10-18T09:02:00.006Z,3928.00
2018-10-18T09:03:00.003Z,4080.00
2018-10-18T09:03:59.999Z,4480.00
2018-10-18T09:04:59.987Z,5240.00
2018-10-18T09:05:59.985Z,5788.00
2018-10-18T09:07:00.034Z,6052.00
2018-10-18T09:07:59.978Z,6160.00
2018-10-18T09:09:00.004Z,6288.00
2018-10-18T09:09:59.976Z,6440.00
2018-10-18T09:10:59.968Z,6676.00
2018-10-18T09:11:59.962Z,6740.00
2018-10-18T09:12:59.991Z,6712.00
2018-10-18T09:13:59.962Z,7048.00
2018-10-18T09:14:59.962Z,7492.00
2018-10-18T09:16:00.038Z,7852.00
2018-10-18T09:16:59.946Z,8360.00
2018-10-18T09:17:59.943Z,8980.00
2018-10-18T09:18:59.969Z,9460.00
2018-10-18T09:19:59.936Z,9980.00
2018-10-18T09:20:59.938Z,10336.00
2018-10-18T09:21:59.936Z,10496.00
2018-10-18T09:22:59.934Z,9832.00
2018-10-18T09:23:59.929Z,9672.00
2018-10-18T09:24:59.980Z,10000.00
2018-10-18T09:25:59.918Z,10040.00
2018-10-18T09:26:59.921Z,9960.00
2018-10-18T09:27:59.917Z,10020.00
2018-10-18T09:28:59.910Z,10096.00
2018-10-18T09:29:59.908Z,9748.00
2018-10-18T09:30:59.923Z,9580.00
2018-10-18T09:31:59.903Z,9264.00
2018-10-18T09:32:59.906Z,9112.00
2018-10-18T09:33:59.905Z,9268.00
2018-10-18T09:34:59.903Z,11216.00
2018-10-18T09:35:59.900Z,9960.00
2018-10-18T09:36:59.916Z,10792.00
2018-10-18T09:37:59.892Z,13464.00
2018-10-18T09:38:59.891Z,13308.00
2018-10-18T09:39:59.890Z,17152.00
2018-10-18T09:40:59.891Z,17504.00
2018-10-18T09:41:59.888Z,19424.00
2018-10-18T09:42:59.886Z,17856.00
2018-10-18T09:43:59.881Z,18496.00
2018-10-18T09:44:59.954Z,18400.00
2018-10-18T09:45:59.885Z,18688.00
2018-10-18T09:46:59.885Z,17920.00
2018-10-18T09:47:59.886Z,18272.00
2018-10-18T09:48:59.922Z,18112.00
2018-10-18T09:49:59.881Z,18720.00
2018-10-18T09:50:59.882Z,18496.00
2018-10-18T09:51:59.884Z,19296.00
2018-10-18T09:52:59.921Z,19520.00
2018-10-18T09:53:59.892Z,18016.00
2018-10-18T09:54:59.978Z,18560.00
2018-10-18T09:55:59.907Z,19424.00
2018-10-18T09:56:59.895Z,18464.00
2018-10-18T09:57:59.899Z,19424.00
2018-10-18T09:58:59.906Z,20448.00
2018-10-18T09:59:59.910Z,20704.00
2018-10-18T10:00:59.956Z,20736.00
2018-10-18T10:01:59.914Z,20064.00
2018-10-18T10:02:59.917Z,20288.00
2018-10-18T10:03:59.968Z,21056.00
2018-10-18T10:04:59.929Z,23168.00
2018-10-18T10:05:59.935Z,22496.00
2018-10-18T10:06:59.992Z,12216.00
2018-10-18T10:07:59.942Z,21344.00
2018-10-18T10:08:59.944Z,21312.00
2018-10-18T10:09:59.949Z,10076.00
2018-10-18T10:10:59.954Z,9140.00
2018-10-18T10:11:59.958Z,21824.00
2018-10-18T10:12:59.999Z,9268.00
2018-10-18T10:13:59.974Z,7392.00
2018-10-18T10:14:59.974Z,9180.00
2018-10-18T10:15:59.978Z,10520.00
2018-10-18T10:16:59.988Z,7964.00
2018-10-18T10:17:59.997Z,10168.00
2018-10-18T10:19:00.006Z,31808.00
2018-10-18T10:20:00.000Z,23552.00
2018-10-18T10:21:00.000Z,6880.00
2018-10-18T10:22:00.005Z,6664.00
2018-10-18T10:23:00.013Z,6784.00
2018-10-18T10:24:00.012Z,7092.00
2018-10-18T10:25:00.072Z,6052.00
2018-10-18T10:26:00.023Z,5812.00
2018-10-18T10:27:00.028Z,6096.00
2018-10-18T10:28:00.031Z,6376.00
2018-10-18T10:29:00.029Z,5972.00
2018-10-18T10:30:00.032Z,6176.00
2018-10-18T10:31:00.050Z,6656.00
2018-10-18T10:32:00.041Z,14928.00
2018-10-18T10:33:00.054Z,6560.00
2018-10-18T10:34:00.041Z,6564.00
2018-10-18T10:35:00.080Z,6292.00
2018-10-18T10:36:00.046Z,6492.00
2018-10-18T10:37:00.067Z,18464.00
2018-10-18T10:38:00.052Z,9652.00
2018-10-18T10:39:00.115Z,18336.00
2018-10-18T10:40:00.058Z,17024.00
2018-10-18T10:41:00.067Z,17056.00
2018-10-18T10:42:00.107Z,16576.00
2018-10-18T10:43:00.154Z,7404.00
2018-10-18T10:44:00.107Z,18464.00
2018-10-18T10:45:00.092Z,18464.00
2018-10-18T10:46:00.110Z,18272.00
2018-10-18T10:47:00.062Z,19904.00
2018-10-18T10:48:00.125Z,20992.00
2018-10-18T10:49:00.076Z,20032.00
2018-10-18T10:50:00.122Z,20736.00
2018-10-18T10:51:00.094Z,21664.00
2018-10-18T10:52:00.121Z,20288.00
2018-10-18T10:53:00.079Z,19680.00
2018-10-18T10:54:00.122Z,18400.00
2018-10-18T10:55:00.085Z,18656.00
2018-10-18T10:56:00.143Z,8568.00
2018-10-18T10:57:00.128Z,17024.00
2018-10-18T10:58:00.104Z,16544.00
2018-10-18T10:59:00.142Z,18400.00
2018-10-18T11:00:00.123Z,21568.00
2018-10-18T11:01:00.106Z,22592.00
2018-10-18T11:02:00.157Z,19584.00
2018-10-18T11:03:00.150Z,13960.00
2018-10-18T11:04:00.127Z,11492.00
2018-10-18T11:05:00.123Z,22304.00
2018-10-18T11:06:00.176Z,22656.00
2018-10-18T11:07:00.130Z,22880.00
2018-10-18T11:08:00.147Z,9604.00
2018-10-18T11:09:00.202Z,10576.00
2018-10-18T11:10:00.148Z,26752.00
2018-10-18T11:11:00.152Z,28160.00
2018-10-18T11:12:00.270Z,10480.00
2018-10-18T11:13:00.156Z,17056.00
2018-10-18T11:14:00.164Z,5928.00
2018-10-18T11:15:00.235Z,5312.00
2018-10-18T11:16:00.167Z,4868.00
2018-10-18T11:17:00.250Z,4296.00
2018-10-18T11:18:00.184Z,4068.00
2018-10-18T11:19:00.179Z,4080.00
2018-10-18T11:20:00.202Z,4256.00
2018-10-18T11:21:00.236Z,4724.00
2018-10-18T11:22:00.195Z,5644.00
2018-10-18T11:23:00.198Z,5780.00
2018-10-18T11:24:00.225Z,5084.00
2018-10-18T11:25:00.197Z,5624.00
2018-10-18T11:26:00.213Z,7108.00
2018-10-18T11:27:00.254Z,5736.00
2018-10-18T11:28:00.204Z,6804.00
2018-10-18T11:29:00.209Z,7560.00
2018-10-18T11:30:00.244Z,8048.00
2018-10-18T11:31:00.214Z,10616.00
2018-10-18T11:32:00.268Z,10984.00
2018-10-18T11:33:00.248Z,8988.00
2018-10-18T11:34:00.211Z,8248.00
2018-10-18T11:35:00.216Z,9252.00
2018-10-18T11:36:00.244Z,8524.00
2018-10-18T11:37:00.213Z,5868.00
2018-10-18T11:38:00.243Z,4748.00
2018-10-18T11:39:00.216Z,4476.00
2018-10-18T11:40:00.215Z,4844.00
2018-10-18T11:41:00.221Z,6712.00
2018-10-18T11:42:00.224Z,6908.00
2018-10-18T11:43:00.222Z,6968.00
2018-10-18T11:44:00.238Z,7112.00
2018-10-18T11:45:00.216Z,7576.00
2018-10-18T11:46:00.217Z,8544.00
2018-10-18T11:47:00.216Z,8732.00
2018-10-18T11:48:00.224Z,9204.00
2018-10-18T11:49:00.228Z,7596.00
2018-10-18T11:50:00.247Z,7364.00
2018-10-18T11:51:00.217Z,5820.00
2018-10-18T11:52:00.239Z,5092.00
2018-10-18T11:53:00.221Z,5024.00
2018-10-18T11:54:00.270Z,5508.00
2018-10-18T11:55:00.222Z,6796.00
2018-10-18T11:56:00.243Z,8676.00
2018-10-18T11:57:00.214Z,7884.00
2018-10-18T11:58:00.215Z,6740.00
2018-10-18T11:59:00.217Z,6664.00
2018-10-18T12:00:00.216Z,6716.00
2018-10-18T12:01:00.241Z,6332.00
2018-10-18T12:02:00.239Z,5680.00
2018-10-18T12:03:00.218Z,5788.00
2018-10-18T12:04:00.216Z,6484.00
2018-10-18T12:05:00.238Z,6980.00
2018-10-18T12:06:00.214Z,7380.00
2018-10-18T12:07:00.215Z,7072.00
2018-10-18T12:08:00.237Z,6780.00
2018-10-18T12:09:00.207Z,6732.00
2018-10-18T12:10:00.208Z,6344.00
2018-10-18T12:11:00.231Z,6348.00
2018-10-18T12:12:00.206Z,6872.00
2018-10-18T12:13:00.212Z,6376.00
2018-10-18T12:14:00.286Z,5396.00
2018-10-18T12:15:00.211Z,5232.00
2018-10-18T12:16:00.208Z,5248.00
2018-10-18T12:17:00.229Z,5028.00
2018-10-18T12:18:00.204Z,4968.00
2018-10-18T12:19:00.240Z,5064.00
2018-10-18T12:20:00.245Z,6200.00
2018-10-18T12:21:00.208Z,6584.00
2018-10-18T12:22:00.207Z,5476.00
2018-10-18T12:23:00.252Z,4444.00
2018-10-18T12:24:00.201Z,5356.00
2018-10-18T12:25:00.206Z,5068.00
2018-10-18T12:26:00.222Z,4692.00
2018-10-18T12:27:00.307Z,5016.00
2018-10-18T12:28:00.203Z,5584.00
2018-10-18T12:29:00.234Z,5972.00
2018-10-18T12:30:00.197Z,6620.00
2018-10-18T12:31:00.198Z,6644.00
2018-10-18T12:32:00.255Z,6764.00
2018-10-18T12:33:00.200Z,7264.00
2018-10-18T12:34:00.200Z,7632.00
2018-10-18T12:35:00.245Z,6332.00
2018-10-18T12:36:00.200Z,5512.00